createdAt,value
2018-09-27T00:02:25.653Z,4.80
2018-09-27T00:04:54.485Z,4.83
2018-09-27T00:07:23.134Z,4.50
2018-09-27T00:09:51.803Z,4.80
2018-09-27T00:12:20.452Z,5.20
2018-09-27T00:14:49.123Z,4.80
2018-09-27T00:17:17.789Z,5.87
2018-09-27T00:19:46.422Z,4.90
2018-09-27T00:22:15.043Z,4.80
2018-09-27T00:24:43.719Z,4.80
2018-09-27T00:27:12.361Z,5.03
2018-09-27T00:29:41.030Z,4.70
2018-09-27T00:32:09.855Z,5.30
2018-09-27T00:34:38.636Z,4.93
2018-09-27T00:37:07.395Z,5.30
2018-09-27T00:39:36.107Z,5.67
2018-09-27T00:42:04.785Z,5.47
2018-09-27T00:44:33.504Z,5.90
2018-09-27T00:47:02.217Z,5.37
2018-09-27T00:49:30.883Z,5.80
2018-09-27T00:51:59.512Z,5.50
2018-09-27T00:54:28.236Z,5.60
2018-09-27T00:56:56.909Z,5.83
2018-09-27T00:59:25.572Z,5.53
2018-09-27T01:01:54.212Z,5.17
2018-09-27T01:04:22.950Z,5.43
2018-09-27T01:06:51.744Z,5.40
2018-09-27T01:09:20.379Z,5.63
2018-09-27T01:11:49.040Z,5.83
2018-09-27T01:14:17.312Z,5.80
2018-09-27T01:16:45.966Z,5.60
2018-09-27T01:19:14.302Z,6.10
2018-09-27T01:21:42.923Z,5.97
2018-09-27T01:24:11.570Z,5.77
2018-09-27T01:26:40.216Z,5.80
2018-09-27T01:29:08.855Z,5.50
2018-09-27T01:31:37.478Z,5.97
2018-09-27T01:34:06.160Z,6.07
2018-09-27T01:36:34.787Z,6.40
2018-09-27T01:39:03.734Z,6.10
2018-09-27T01:41:32.439Z,5.37
2018-09-27T01:44:01.082Z,5.87
2018-09-27T01:46:29.756Z,6.60
2018-09-27T01:48:58.408Z,7.03
2018-09-27T01:51:27.053Z,6.50
2018-09-27T01:53:55.704Z,6.43
2018-09-27T01:56:24.401Z,6.30
2018-09-27T01:58:53.038Z,5.97
2018-09-27T02:01:21.716Z,5.60
2018-09-27T02:03:50.366Z,6.23
2018-09-27T02:06:19.054Z,6.00
2018-09-27T02:08:47.675Z,5.90
2018-09-27T02:11:16.349Z,5.80
2018-09-27T02:13:44.980Z,6.07
2018-09-27T02:16:13.681Z,5.87
2018-09-27T02:18:41.983Z,5.97
2018-09-27T02:21:10.983Z,6.07
2018-09-27T02:23:39.608Z,6.50
2018-09-27T02:26:08.293Z,6.17
2018-09-27T02:28:36.980Z,6.30
2018-09-27T02:31:05.651Z,5.80
2018-09-27T02:33:34.312Z,6.10
2018-09-27T02:36:02.959Z,6.10
2018-09-27T02:38:31.580Z,6.10
2018-09-27T02:41:00.213Z,6.33
2018-09-27T02:43:28.886Z,5.70
2018-09-27T02:45:57.577Z,6.53
2018-09-27T02:48:26.263Z,6.47
2018-09-27T02:50:54.920Z,6.07
2018-09-27T02:53:23.781Z,6.20
2018-09-27T02:55:52.430Z,6.27
2018-09-27T02:58:21.141Z,6.50
2018-09-27T03:00:49.869Z,6.00
2018-09-27T03:03:18.580Z,6.10
2018-09-27T03:05:47.236Z,6.10
2018-09-27T03:08:15.885Z,5.87
2018-09-27T03:10:44.528Z,6.83
2018-09-27T03:13:13.197Z,6.20
2018-09-27T03:15:41.915Z,6.40
2018-09-27T03:18:10.521Z,5.90
2018-09-27T03:20:39.164Z,5.90
2018-09-27T03:23:07.803Z,6.50
2018-09-27T03:25:36.427Z,6.30
2018-09-27T03:28:05.105Z,6.80
2018-09-27T03:30:33.762Z,6.63
2018-09-27T03:33:02.457Z,7.10
2018-09-27T03:35:31.157Z,6.80
2018-09-27T03:37:59.852Z,6.60
2018-09-27T03:40:28.570Z,6.57
2018-09-27T03:42:57.232Z,6.60
2018-09-27T03:45:26.118Z,7.00
2018-09-27T03:47:54.815Z,6.67
2018-09-27T03:50:23.499Z,6.93
2018-09-27T03:52:52.165Z,6.57
2018-09-27T03:55:20.823Z,6.80
2018-09-27T03:57:49.470Z,6.73
2018-09-27T04:00:18.153Z,6.73
2018-09-27T04:02:46.828Z,6.60
2018-09-27T04:05:15.619Z,7.13
2018-09-27T04:07:44.363Z,7.20
2018-09-27T04:10:13.078Z,7.30
2018-09-27T04:12:41.862Z,7.53
2018-09-27T04:15:10.494Z,7.33
2018-09-27T04:17:39.133Z,7.73
2018-09-27T04:20:07.548Z,7.60
2018-09-27T04:22:36.203Z,6.97
2018-09-27T04:25:05.235Z,7.27
2018-09-27T04:27:33.953Z,7.40
2018-09-27T04:30:02.614Z,7.63
2018-09-27T04:32:31.250Z,7.57
2018-09-27T04:34:59.927Z,8.10
2018-09-27T04:37:28.582Z,6.63
2018-09-27T04:39:57.381Z,7.43
2018-09-27T04:42:25.999Z,6.70
2018-09-27T04:44:54.651Z,7.30
2018-09-27T04:47:23.435Z,7.30
2018-09-27T04:49:52.085Z,6.97
2018-09-27T04:52:20.744Z,7.07
2018-09-27T04:54:49.419Z,7.27
2018-09-27T04:57:18.344Z,7.30
2018-09-27T04:59:46.997Z,7.33
2018-09-27T05:02:15.277Z,7.00
2018-09-27T05:04:43.885Z,7.10
2018-09-27T05:07:12.567Z,6.93
2018-09-27T05:09:41.239Z,6.77
2018-09-27T05:12:09.844Z,7.43
2018-09-27T05:14:38.482Z,7.07
2018-09-27T05:17:07.152Z,6.87
2018-09-27T05:19:35.911Z,7.13
2018-09-27T05:22:04.595Z,6.20
2018-09-27T05:24:33.287Z,7.00
2018-09-27T05:27:01.935Z,7.00
2018-09-27T05:29:30.536Z,7.00
2018-09-27T05:31:59.169Z,6.90
2018-09-27T05:34:27.790Z,7.17
2018-09-27T05:36:56.497Z,7.50
2018-09-27T05:39:25.193Z,7.03
2018-09-27T05:41:53.882Z,7.03
2018-09-27T05:44:22.513Z,7.40
2018-09-27T05:46:51.298Z,7.07
2018-09-27T05:49:19.979Z,6.60
2018-09-27T05:51:48.905Z,6.70
2018-09-27T05:54:17.767Z,6.53
2018-09-27T05:56:46.464Z,7.40
2018-09-27T05:59:15.169Z,7.20
2018-09-27T06:01:43.867Z,6.67
2018-09-27T06:04:12.558Z,7.00
2018-09-27T06:06:41.224Z,7.07
2018-09-27T06:09:11.666Z,7.50
2018-09-27T06:11:40.301Z,6.83
2018-09-27T06:14:08.979Z,7.03
2018-09-27T06:16:38.672Z,6.93
2018-09-27T06:19:08.064Z,6.20
2018-09-27T06:21:36.890Z,7.10
2018-09-27T06:24:06.027Z,6.20
2018-09-27T06:26:34.651Z,6.90
2018-09-27T06:29:03.426Z,7.47
2018-09-27T06:31:32.074Z,6.60
2018-09-27T06:34:00.712Z,6.77
2018-09-27T06:36:29.379Z,6.87
2018-09-27T06:38:58.012Z,5.67
2018-09-27T06:41:26.797Z,6.20
2018-09-27T06:43:55.430Z,5.23
2018-09-27T06:46:24.034Z,6.20
2018-09-27T06:48:52.705Z,6.53
2018-09-27T06:51:21.377Z,6.50
2018-09-27T06:53:50.023Z,6.97
2018-09-27T06:56:18.702Z,6.00
2018-09-27T06:58:47.378Z,6.37
2018-09-27T07:01:16.023Z,5.40
2018-09-27T07:03:44.628Z,6.00
2018-09-27T07:06:13.296Z,6.10
2018-09-27T07:08:42.109Z,6.20
2018-09-27T07:11:10.799Z,6.27
2018-09-27T07:13:39.446Z,6.27
2018-09-27T07:16:08.181Z,5.87
2018-09-27T07:18:36.835Z,6.13
2018-09-27T07:21:05.549Z,5.83
2018-09-27T07:23:34.196Z,6.30
2018-09-27T07:26:03.132Z,5.40
2018-09-27T07:28:31.761Z,5.93
2018-09-27T07:31:00.488Z,5.90
2018-09-27T07:33:29.124Z,6.40
2018-09-27T07:35:57.816Z,6.40
2018-09-27T07:38:26.500Z,7.00
2018-09-27T07:40:55.183Z,6.97
2018-09-27T07:43:23.851Z,7.00
2018-09-27T07:45:52.521Z,6.67
2018-09-27T07:48:21.142Z,6.83
2018-09-27T07:50:49.774Z,6.50
2018-09-27T07:53:18.054Z,6.37
2018-09-27T07:55:46.712Z,7.03
2018-09-27T07:58:14.996Z,6.73
2018-09-27T08:00:43.634Z,6.83
2018-09-27T08:03:12.329Z,6.70
2018-09-27T08:05:40.948Z,7.23
2018-09-27T08:08:09.619Z,7.00
2018-09-27T08:10:38.259Z,6.65
2018-09-27T08:13:06.927Z,7.50
2018-09-27T08:15:35.538Z,7.05
2018-09-27T08:18:04.216Z,7.08
2018-09-27T08:20:32.902Z,6.83
2018-09-27T08:23:01.521Z,7.53
2018-09-27T08:25:30.143Z,7.25
2018-09-27T08:27:58.781Z,8.48
2018-09-27T08:30:27.435Z,7.55
2018-09-27T08:32:56.070Z,8.45
2018-09-27T08:35:24.783Z,7.55
2018-09-27T08:37:53.432Z,8.30
2018-09-27T08:40:21.734Z,7.83
2018-09-27T08:42:50.485Z,7.97
2018-09-27T08:45:19.325Z,8.03
2018-09-27T08:47:47.746Z,7.97
2018-09-27T08:50:16.414Z,9.50
2018-09-27T08:52:44.709Z,8.70
2018-09-27T08:55:13.376Z,8.78
2018-09-27T08:57:42.016Z,9.83
2018-09-27T09:00:10.664Z,9.78
2018-09-27T09:02:39.343Z,9.53
2018-09-27T09:05:08.169Z,9.13
2018-09-27T09:07:36.985Z,9.38
2018-09-27T09:10:05.769Z,8.65
2018-09-27T09:12:34.398Z,8.93
2018-09-27T09:15:03.049Z,9.00
2018-09-27T09:17:31.719Z,9.08
2018-09-27T09:20:00.381Z,9.03
2018-09-27T09:22:28.990Z,8.78
2018-09-27T09:24:57.660Z,8.75
2018-09-27T09:27:26.355Z,8.10
2018-09-27T09:29:55.127Z,8.80
2018-09-27T09:32:23.750Z,9.38
2018-09-27T09:34:52.540Z,8.58
2018-09-27T09:37:21.215Z,8.40
2018-09-27T09:39:49.965Z,7.80
2018-09-27T09:42:18.620Z,8.58
2018-09-27T09:44:47.261Z,8.15
2018-09-27T09:47:16.072Z,8.05
2018-09-27T09:49:44.371Z,8.23
2018-09-27T09:52:12.982Z,7.50
2018-09-27T09:54:42.096Z,8.03
2018-09-27T09:57:10.803Z,8.63
2018-09-27T09:59:39.475Z,8.55
2018-09-27T10:02:08.164Z,7.90
2018-09-27T10:04:36.807Z,7.97
2018-09-27T10:07:05.478Z,8.08
2018-09-27T10:09:34.101Z,7.75
2018-09-27T10:12:02.764Z,7.20
2018-09-27T10:14:31.438Z,7.85
2018-09-27T10:17:00.108Z,7.65
2018-09-27T10:19:28.732Z,7.05
2018-09-27T10:21:57.407Z,6.78
2018-09-27T10:24:26.048Z,6.65
2018-09-27T10:26:54.649Z,7.58
2018-09-27T10:29:23.329Z,7.03
2018-09-27T10:31:51.970Z,7.85
2018-09-27T10:34:21.004Z,7.22
2018-09-27T10:36:49.652Z,7.65
2018-09-27T10:39:18.270Z,7.10
2018-09-27T10:41:46.952Z,6.80
2018-09-27T10:44:15.665Z,6.42
2018-09-27T10:46:44.318Z,6.28
2018-09-27T10:49:12.936Z,6.45
2018-09-27T10:51:41.567Z,6.12
2018-09-27T10:54:10.262Z,6.50
2018-09-27T10:56:38.963Z,5.65
2018-09-27T10:59:07.658Z,6.03
2018-09-27T11:01:36.314Z,5.58
2018-09-27T11:04:04.992Z,6.35
2018-09-27T11:06:33.647Z,5.80
2018-09-27T11:09:02.318Z,6.22
2018-09-27T11:11:31.022Z,5.95
2018-09-27T11:13:59.686Z,5.65
2018-09-27T11:16:28.441Z,5.33
2018-09-27T11:18:57.104Z,5.08
2018-09-27T11:21:25.782Z,4.67
2018-09-27T11:23:54.439Z,4.87
2018-09-27T11:26:23.121Z,4.40
2018-09-27T11:28:57.089Z,4.42
2018-09-27T11:31:30.990Z,4.28
2018-09-27T11:33:59.614Z,4.15
2018-09-27T11:36:28.333Z,4.97
2018-09-27T11:38:56.899Z,4.55
2018-09-27T11:41:25.571Z,4.85
2018-09-27T11:43:54.232Z,4.92
2018-09-27T11:46:22.989Z,4.85
2018-09-27T11:48:51.631Z,4.67
2018-09-27T11:51:20.302Z,3.90
2018-09-27T11:53:48.910Z,3.98
2018-09-27T11:56:17.543Z,4.08
2018-09-27T11:58:46.188Z,4.03
2018-09-27T12:01:14.866Z,3.60
2018-09-27T12:03:43.523Z,4.15
2018-09-27T12:06:12.130Z,4.55
2018-09-27T12:08:40.771Z,4.22
2018-09-27T12:11:09.389Z,4.20
2018-09-27T12:13:39.515Z,4.30
2018-09-27T12:16:08.878Z,4.12
2018-09-27T12:18:37.592Z,4.00
2018-09-27T12:21:06.393Z,4.65
2018-09-27T12:23:35.138Z,4.20
2018-09-27T12:26:03.785Z,3.70
2018-09-27T12:28:32.500Z,4.20
2018-09-27T12:31:01.248Z,3.92
2018-09-27T12:33:30.221Z,4.30
2018-09-27T12:35:58.865Z,4.58
2018-09-27T12:38:27.527Z,4.47
2018-09-27T12:40:56.137Z,4.53
2018-09-27T12:43:24.921Z,4.55
2018-09-27T12:45:53.590Z,5.08
2018-09-27T12:48:22.302Z,4.92
2018-09-27T12:50:50.953Z,4.50
2018-09-27T12:53:19.605Z,5.15
2018-09-27T12:55:48.637Z,4.50
2018-09-27T12:58:17.227Z,4.95
2018-09-27T13:00:45.897Z,4.55
2018-09-27T13:03:14.547Z,4.35
2018-09-27T13:05:43.285Z,4.25
2018-09-27T13:08:12.003Z,4.67
2018-09-27T13:10:40.672Z,4.90
2018-09-27T13:13:09.370Z,4.28
2018-09-27T13:15:38.026Z,4.40
2018-09-27T13:18:06.672Z,4.78
2018-09-27T13:20:35.371Z,4.90
2018-09-27T13:23:04.066Z,5.12
2018-09-27T13:25:32.818Z,4.53
2018-09-27T13:28:01.463Z,4.70
2018-09-27T13:30:30.357Z,5.65
2018-09-27T13:32:59.020Z,5.08
2018-09-27T13:35:27.657Z,5.20
2018-09-27T13:37:56.278Z,5.40
2018-09-27T13:40:24.974Z,4.75
2018-09-27T13:42:53.638Z,5.67
2018-09-27T13:45:22.282Z,6.05
2018-09-27T13:47:51.088Z,5.70
2018-09-27T13:50:19.745Z,5.40
2018-09-27T13:52:48.413Z,5.22
2018-09-27T13:55:17.171Z,5.22
2018-09-27T13:57:45.826Z,5.10
2018-09-27T14:00:14.470Z,5.22
2018-09-27T14:02:43.106Z,5.95
2018-09-27T14:05:11.748Z,6.17
2018-09-27T14:07:40.850Z,6.40
2018-09-27T14:10:09.564Z,6.37
2018-09-27T14:12:38.745Z,5.47
2018-09-27T14:15:07.891Z,5.95
2018-09-27T14:17:36.572Z,6.42
2018-09-27T14:20:06.537Z,5.67
2018-09-27T14:22:34.882Z,5.65
2018-09-27T14:25:03.171Z,5.08
2018-09-27T14:27:31.945Z,6.00
2018-09-27T14:30:00.660Z,5.78
2018-09-27T14:32:28.888Z,5.30
2018-09-27T14:34:57.572Z,5.37
2018-09-27T14:37:26.366Z,5.92
2018-09-27T14:39:55.050Z,6.10
2018-09-27T14:42:23.704Z,5.95
2018-09-27T14:44:52.860Z,5.53
2018-09-27T14:47:21.596Z,5.72
2018-09-27T14:49:50.230Z,4.97
2018-09-27T14:52:20.371Z,5.97
2018-09-27T14:54:49.296Z,5.50
2018-09-27T14:57:17.924Z,5.50
2018-09-27T14:59:46.252Z,4.97
2018-09-27T15:02:14.610Z,4.67
2018-09-27T15:04:43.236Z,5.05
2018-09-27T15:07:12.831Z,5.12
2018-09-27T15:09:41.295Z,4.30
2018-09-27T15:12:09.968Z,4.33
2018-09-27T15:14:38.335Z,3.72
2018-09-27T15:17:06.890Z,4.33
2018-09-27T15:19:35.598Z,4.20
2018-09-27T15:22:04.659Z,3.95
2018-09-27T15:24:33.363Z,4.60
2018-09-27T15:27:02.006Z,4.60
2018-09-27T15:29:30.725Z,4.58
2018-09-27T15:31:59.070Z,4.40
2018-09-27T15:34:28.740Z,5.00
2018-09-27T15:36:57.506Z,4.83
2018-09-27T15:39:26.155Z,4.33
2018-09-27T15:41:54.881Z,4.30
2018-09-27T15:44:23.524Z,3.52
2018-09-27T15:46:52.295Z,4.33
2018-09-27T15:49:20.974Z,4.35
2018-09-27T15:51:49.651Z,4.40
2018-09-27T15:54:18.306Z,4.90
2018-09-27T15:56:46.752Z,3.90
2018-09-27T15:59:15.464Z,3.92
2018-09-27T16:01:44.399Z,4.12
2018-09-27T16:04:13.561Z,4.12
2018-09-27T16:06:41.965Z,4.37
2018-09-27T16:09:11.922Z,4.53
2018-09-27T16:11:42.161Z,4.85
2018-09-27T16:14:11.065Z,4.10
2018-09-27T16:16:40.018Z,4.65
2018-09-27T16:19:08.865Z,4.20
2018-09-27T16:21:37.538Z,4.33
2018-09-27T16:24:06.195Z,4.25
2018-09-27T16:26:35.644Z,4.12
2018-09-27T16:29:05.675Z,3.80
2018-09-27T16:31:35.322Z,3.85
2018-09-27T16:34:04.123Z,3.92
2018-09-27T16:36:33.631Z,3.80
2018-09-27T16:39:02.577Z,4.03
2018-09-27T16:41:30.880Z,3.58
2018-09-27T16:44:00.682Z,3.70
2018-09-27T16:46:29.647Z,3.95
2018-09-27T16:49:00.025Z,4.42
2018-09-27T16:51:29.968Z,3.65
2018-09-27T16:53:58.916Z,3.95
2018-09-27T16:56:27.180Z,3.35
2018-09-27T16:58:55.458Z,3.60
2018-09-27T17:01:24.139Z,3.40
2018-09-27T17:03:52.791Z,4.00
2018-09-27T17:06:21.413Z,3.37
2018-09-27T17:08:51.637Z,3.37
2018-09-27T17:11:20.512Z,3.45
2018-09-27T17:13:49.159Z,3.00
2018-09-27T17:16:17.448Z,2.98
2018-09-27T17:18:47.640Z,3.20
2018-09-27T17:21:18.591Z,2.80
2018-09-27T17:23:47.522Z,3.10
2018-09-27T17:26:16.218Z,2.90
2018-09-27T17:28:44.545Z,3.10
2018-09-27T17:31:14.504Z,3.02
2018-09-27T17:33:45.114Z,2.80
2018-09-27T17:36:13.995Z,2.65
2018-09-27T17:38:43.348Z,3.17
2018-09-27T17:41:12.074Z,2.50
2018-09-27T17:43:40.373Z,3.67
2018-09-27T17:46:11.410Z,3.05
2018-09-27T17:48:39.992Z,2.62
2018-09-27T17:51:08.618Z,3.35
2018-09-27T17:53:37.253Z,2.92
2018-09-27T17:56:05.547Z,2.83
2018-09-27T17:58:34.290Z,6.47
2018-09-27T18:01:02.946Z,3.33
2018-09-27T18:03:31.258Z,6.37
2018-09-27T18:05:59.877Z,7.33
2018-09-27T18:08:28.581Z,7.53
2018-09-27T18:10:57.306Z,10.27
2018-09-27T18:13:25.985Z,7.73
2018-09-27T18:15:54.656Z,8.77
2018-09-27T18:18:23.290Z,6.93
2018-09-27T18:20:51.995Z,5.33
2018-09-27T18:23:21.500Z,4.50
2018-09-27T18:25:50.154Z,4.63
2018-09-27T18:28:18.788Z,4.37
2018-09-27T18:30:47.424Z,4.83
2018-09-27T18:33:16.047Z,4.53
2018-09-27T18:35:44.715Z,5.67
2018-09-27T18:38:13.744Z,5.10
2018-09-27T18:40:42.304Z,5.77
2018-09-27T18:43:10.983Z,6.27
2018-09-27T18:45:39.687Z,5.47
2018-09-27T18:48:08.457Z,5.90
2018-09-27T18:50:37.228Z,5.80
2018-09-27T18:53:05.924Z,6.03
2018-09-27T18:55:34.662Z,5.70
2018-09-27T18:58:03.320Z,5.30
2018-09-27T19:00:32.022Z,5.47
2018-09-27T19:03:00.672Z,5.37
2018-09-27T19:05:29.323Z,4.67
2018-09-27T19:07:58.056Z,4.37
2018-09-27T19:10:26.755Z,4.10
2018-09-27T19:12:55.503Z,4.33
2018-09-27T19:15:24.150Z,3.53
2018-09-27T19:17:53.404Z,3.60
2018-09-27T19:20:22.120Z,3.57
2018-09-27T19:22:50.908Z,3.97
2018-09-27T19:25:19.581Z,3.43
2018-09-27T19:27:48.292Z,3.80
2018-09-27T19:30:16.935Z,4.00
2018-09-27T19:32:45.629Z,3.80
2018-09-27T19:35:13.982Z,3.90
2018-09-27T19:37:42.701Z,3.50
2018-09-27T19:40:11.369Z,3.93
2018-09-27T19:42:40.010Z,4.37
2018-09-27T19:45:08.679Z,4.23
2018-09-27T19:47:37.369Z,4.47
2018-09-27T19:50:06.021Z,4.13
2018-09-27T19:52:34.947Z,4.20
2018-09-27T19:55:03.617Z,4.43
2018-09-27T19:57:32.289Z,4.70
2018-09-27T20:00:00.960Z,4.67
2018-09-27T20:02:29.661Z,5.03
2018-09-27T20:04:58.298Z,4.37
2018-09-27T20:07:27.261Z,4.57
2018-09-27T20:09:55.942Z,5.27
2018-09-27T20:12:24.706Z,5.30
2018-09-27T20:14:53.341Z,5.20
2018-09-27T20:17:22.082Z,4.83
2018-09-27T20:19:50.753Z,4.40
2018-09-27T20:22:19.481Z,4.93
2018-09-27T20:24:48.110Z,5.10
2018-09-27T20:27:16.799Z,4.30
2018-09-27T20:29:45.487Z,5.20
2018-09-27T20:32:14.132Z,5.83
2018-09-27T20:34:42.860Z,5.20
2018-09-27T20:37:11.487Z,6.87
2018-09-27T20:39:40.128Z,4.73
2018-09-27T20:42:08.898Z,6.07
2018-09-27T20:44:37.552Z,5.90
2018-09-27T20:47:06.188Z,6.57
2018-09-27T20:49:34.849Z,6.30
2018-09-27T20:52:03.512Z,6.33
2018-09-27T20:54:32.149Z,7.47
2018-09-27T20:57:00.799Z,10.93
2018-09-27T20:59:29.487Z,19.50
2018-09-27T21:01:58.129Z,20.50
2018-09-27T21:04:26.745Z,17.90
2018-09-27T21:06:55.459Z,19.93
2018-09-27T21:09:24.140Z,15.27
2018-09-27T21:11:52.808Z,14.33
2018-09-27T21:14:21.455Z,10.20
2018-09-27T21:16:50.080Z,9.37
2018-09-27T21:19:18.830Z,9.37
2018-09-27T21:21:47.517Z,8.70
2018-09-27T21:24:16.180Z,8.80
2018-09-27T21:26:44.820Z,8.87
2018-09-27T21:29:13.493Z,7.77
2018-09-27T21:31:42.227Z,7.83
2018-09-27T21:34:10.895Z,8.70
2018-09-27T21:36:39.549Z,9.00
2018-09-27T21:39:08.563Z,8.73
2018-09-27T21:41:37.220Z,8.57
2018-09-27T21:44:05.994Z,9.23
2018-09-27T21:46:34.662Z,8.20
2018-09-27T21:49:03.340Z,8.40
2018-09-27T21:51:31.989Z,9.53
2018-09-27T21:54:00.626Z,9.07
2018-09-27T21:56:29.292Z,9.73
2018-09-27T21:58:57.955Z,8.60
2018-09-27T22:01:26.632Z,9.03
2018-09-27T22:03:55.251Z,8.40
2018-09-27T22:06:23.918Z,8.20
2018-09-27T22:08:52.594Z,8.70
2018-09-27T22:11:21.222Z,10.30
2018-09-27T22:13:49.935Z,9.57
2018-09-27T22:16:18.647Z,9.17
2018-09-27T22:18:47.320Z,9.60
2018-09-27T22:21:15.988Z,9.93
2018-09-27T22:23:44.629Z,10.77
2018-09-27T22:26:13.272Z,9.80
2018-09-27T22:28:41.976Z,9.57
2018-09-27T22:31:11.847Z,9.43
2018-09-27T22:33:40.540Z,8.83
2018-09-27T22:36:09.234Z,9.10
2018-09-27T22:38:37.950Z,8.37
2018-09-27T22:41:06.906Z,9.63
2018-09-27T22:43:35.577Z,8.50
2018-09-27T22:46:04.268Z,9.43
2018-09-27T22:48:32.943Z,9.37
2018-09-27T22:51:01.666Z,9.27
2018-09-27T22:53:30.352Z,8.80
2018-09-27T22:55:59.036Z,8.03
2018-09-27T22:58:27.738Z,8.23
2018-09-27T23:00:56.366Z,8.43
2018-09-27T23:03:25.002Z,8.07
2018-09-27T23:05:53.634Z,8.30
2018-09-27T23:08:21.925Z,7.80
2018-09-27T23:10:50.614Z,7.80
2018-09-27T23:13:19.346Z,8.83
2018-09-27T23:15:47.675Z,7.90
2018-09-27T23:18:16.330Z,9.00
2018-09-27T23:20:45.014Z,8.67
2018-09-27T23:23:13.647Z,8.30
2018-09-27T23:25:41.960Z,8.37
2018-09-27T23:28:10.641Z,7.60
2018-09-27T23:30:39.371Z,9.40
2018-09-27T23:33:07.764Z,8.87
2018-09-27T23:35:36.098Z,9.93
2018-09-27T23:38:04.400Z,11.20
2018-09-27T23:40:33.090Z,11.07
2018-09-27T23:43:01.440Z,12.37
2018-09-27T23:45:30.172Z,11.27
2018-09-27T23:47:58.823Z,9.87
2018-09-27T23:50:27.482Z,9.13
2018-09-27T23:52:55.810Z,10.13
2018-09-27T23:55:24.454Z,10.10
2018-09-27T23:57:52.747Z,9.67
